Time;durP1;ratioP1;P1;durP2;ratioP2;P2;SDS_P1;SDS_P2;PMS_P1;PMS_P2;Temp;Humidity;BMP_temperature;BMP_pressure;BME280_temperature;BME280_humidity;BME280_pressure;Samples;Min_cycle;Max_cycle;Signal;HPM_P1;HPM_P2
2022/11/26 00:02:17;;;;;;;53.60;20.73;;;5.10;99.90;;;;;;5037053;28;20785;-81
2022/11/26 00:04:43;;;;;;;64.70;19.52;;;5.00;99.90;;;;;;5053646;28;20036;-78
2022/11/26 00:07:14;;;;;;;67.60;21.38;;;5.10;99.90;;;;;;5050155;28;20076;-78
2022/11/26 00:09:40;;;;;;;59.80;20.27;;;5.10;99.90;;;;;;5055072;28;20044;-79
2022/11/26 00:12:16;;;;;;;62.20;20.50;;;5.00;99.90;;;;;;5048383;28;20049;-78
2022/11/26 00:14:42;;;;;;;57.30;20.85;;;5.00;99.90;;;;;;5053208;28;20077;-79
2022/11/26 00:17:11;;;;;;;55.80;19.83;;;5.10;99.90;;;;;;5049008;28;20053;-78
2022/11/26 00:19:37;;;;;;;47.85;19.58;;;5.00;99.90;;;;;;5042603;28;20091;-78
2022/11/26 00:22:02;;;;;;;57.63;20.00;;;5.00;99.90;;;;;;5037865;28;20057;-78
2022/11/26 00:24:29;;;;;;;53.08;20.83;;;5.00;99.90;;;;;;5014010;28;20257;-78
2022/11/26 00:26:56;;;;;;;50.40;20.88;;;5.00;99.90;;;;;;5048769;28;20152;-79
2022/11/26 00:29:22;;;;;;;55.35;18.70;;;5.00;99.90;;;;;;5051700;28;20076;-78
2022/11/26 00:31:48;;;;;;;51.20;20.02;;;5.00;99.90;;;;;;5056304;28;20083;-83
2022/11/26 00:34:13;;;;;;;55.25;20.58;;;4.90;99.90;;;;;;5031867;28;20048;-78
2022/11/26 00:36:41;;;;;;;59.00;21.38;;;4.90;99.90;;;;;;5027570;28;20561;-79
2022/11/26 00:39:11;;;;;;;53.47;18.92;;;5.00;99.90;;;;;;5029300;28;20084;-82
2022/11/26 00:41:38;;;;;;;53.55;19.52;;;5.00;99.90;;;;;;5048215;28;20385;-78
2022/11/26 00:44:23;;;;;;;52.80;19.95;;;5.00;99.90;;;;;;5059528;28;20049;-79
2022/11/26 00:46:50;;;;;;;54.28;20.50;;;5.00;99.90;;;;;;5047228;28;20052;-78
2022/11/26 00:49:16;;;;;;;62.70;22.35;;;5.00;99.90;;;;;;5032287;28;20049;-80
2022/11/26 00:51:42;;;;;;;61.67;22.45;;;5.00;99.90;;;;;;5050458;28;20049;-78
2022/11/26 00:54:12;;;;;;;48.10;20.10;;;4.90;99.90;;;;;;5024310;28;20048;-78
2022/11/26 00:56:40;;;;;;;58.25;21.02;;;4.90;99.90;;;;;;5060538;28;20119;-81
2022/11/26 00:59:06;;;;;;;62.13;21.27;;;4.90;99.90;;;;;;5058791;28;20076;-78
2022/11/26 01:01:31;;;;;;;47.38;19.45;;;4.90;99.90;;;;;;5073307;28;20438;-79
2022/11/26 01:03:58;;;;;;;48.92;20.08;;;4.90;99.90;;;;;;5052869;28;20033;-78
2022/11/26 01:06:37;;;;;;;56.05;20.85;;;4.90;99.90;;;;;;5065237;28;20375;-80
2022/11/26 01:09:11;;;;;;;58.70;20.58;;;4.90;99.90;;;;;;5061064;28;20056;-78
2022/11/26 01:11:37;;;;;;;55.75;23.08;;;4.90;99.90;;;;;;5055529;28;20451;-78
2022/11/26 01:14:04;;;;;;;57.42;21.90;;;4.80;99.90;;;;;;5056034;28;20119;-78
2022/11/26 01:16:35;;;;;;;60.92;21.48;;;4.80;99.90;;;;;;5066887;28;20080;-78
2022/11/26 01:19:01;;;;;;;50.05;19.88;;;4.80;99.90;;;;;;5052742;28;20458;-78
2022/11/26 01:21:29;;;;;;;52.58;20.42;;;4.70;99.90;;;;;;5067652;28;20049;-79
2022/11/26 01:23:56;;;;;;;60.85;20.13;;;4.70;99.90;;;;;;5036794;28;20120;-83
2022/11/26 01:26:24;;;;;;;51.83;20.50;;;4.60;99.90;;;;;;5050951;28;20509;-77
2022/11/26 01:28:50;;;;;;;50.53;20.58;;;4.60;99.90;;;;;;5034759;28;20088;-77
2022/11/26 01:31:24;;;;;;;48.30;21.20;;;4.60;99.90;;;;;;5054106;28;20639;-77
2022/11/26 01:33:50;;;;;;;47.58;19.38;;;4.60;99.90;;;;;;5039421;28;20088;-78
2022/11/26 01:36:29;;;;;;;52.83;20.48;;;4.70;99.90;;;;;;5054192;28;20047;-80
2022/11/26 01:39:01;;;;;;;45.85;20.83;;;4.70;99.90;;;;;;5035710;28;20107;-77
2022/11/26 01:41:30;;;;;;;49.95;20.75;;;4.70;99.90;;;;;;5047833;28;20490;-77
2022/11/26 01:43:57;;;;;;;52.33;20.48;;;4.70;99.90;;;;;;5052678;28;20084;-77
2022/11/26 01:46:25;;;;;;;56.10;21.75;;;4.60;99.90;;;;;;5035752;28;20060;-77
2022/11/26 01:48:51;;;;;;;60.03;20.95;;;4.50;99.90;;;;;;5021931;28;20052;-79
2022/11/26 01:51:27;;;;;;;59.42;22.33;;;4.40;99.90;;;;;;5048542;28;20041;-77
2022/11/26 01:53:58;;;;;;;;;;;4.30;99.90;;;;;;5072876;28;20558;-77
2022/11/26 01:56:31;;;;;;;55.25;20.63;;;4.30;99.90;;;;;;5042526;28;19970;-77
2022/11/26 01:59:19;;;;;;;56.63;21.08;;;4.20;99.90;;;;;;5050104;28;20136;-77
2022/11/26 02:01:45;;;;;;;57.72;21.30;;;4.20;99.90;;;;;;5046989;28;20387;-77
2022/11/26 02:04:20;;;;;;;59.75;22.15;;;4.10;99.90;;;;;;5048705;28;20044;-78
2022/11/26 02:06:48;;;;;;;60.70;22.05;;;4.10;99.90;;;;;;5029281;28;20053;-77
2022/11/26 02:09:15;;;;;;;69.97;22.23;;;4.00;99.90;;;;;;5041236;28;20045;-77
2022/11/26 02:11:41;;;;;;;56.90;23.05;;;4.00;99.90;;;;;;5037983;28;20098;-80
2022/11/26 02:14:41;;;;;;;72.07;22.13;;;4.00;99.90;;;;;;5049985;28;20055;-77
2022/11/26 02:17:35;;;;;;;59.50;21.73;;;3.90;99.90;;;;;;5026309;28;20534;-77
2022/11/26 02:20:35;;;;;;;60.35;21.98;;;3.90;99.90;;;;;;5052445;28;20076;-78
2022/11/26 02:23:09;;;;;;;61.28;21.23;;;3.80;99.90;;;;;;5045469;28;20045;-80
2022/11/26 02:25:41;;;;;;;57.60;21.92;;;3.80;99.90;;;;;;5028818;28;20057;-77
2022/11/26 02:28:35;;;;;;;69.13;22.02;;;3.80;99.90;;;;;;5033452;28;20062;-78
2022/11/26 02:31:24;;;;;;;72.15;22.52;;;3.70;99.90;;;;;;5044320;28;20041;-81
2022/11/26 02:34:09;;;;;;;60.10;22.25;;;3.80;99.90;;;;;;5047681;28;20040;-78
2022/11/26 02:36:41;;;;;;;62.67;22.40;;;3.80;99.90;;;;;;5032102;28;20083;-79
2022/11/26 02:39:11;;;;;;;57.70;23.08;;;3.80;99.90;;;;;;5055316;28;20034;-77
2022/11/26 02:41:42;;;;;;;63.92;24.75;;;3.80;99.90;;;;;;5046529;28;20048;-77
2022/11/26 02:44:07;;;;;;;67.28;24.58;;;3.80;99.90;;;;;;5051685;28;20086;-84
2022/11/26 02:46:33;;;;;;;64.15;23.48;;;3.70;99.90;;;;;;5052835;28;20048;-77
2022/11/26 02:48:59;;;;;;;74.78;24.77;;;3.70;99.90;;;;;;5033574;28;20511;-78
2022/11/26 02:51:26;;;;;;;68.50;24.30;;;3.60;99.90;;;;;;5029564;28;20049;-77
2022/11/26 02:53:53;;;;;;;68.28;26.10;;;3.60;99.90;;;;;;5055210;28;20123;-77
2022/11/26 02:56:23;;;;;;;78.95;25.50;;;3.50;99.90;;;;;;5032518;28;20056;-79
2022/11/26 02:58:51;;;;;;;70.93;26.63;;;3.50;99.90;;;;;;5039266;28;20089;-77
2022/11/26 03:01:30;;;;;;;69.95;25.60;;;3.50;99.90;;;;;;5031094;28;20045;-78
2022/11/26 03:04:01;;;;;;;62.20;24.15;;;3.40;99.90;;;;;;5031214;28;20060;-77
2022/11/26 03:06:31;;;;;;;85.18;28.20;;;3.30;99.90;;;;;;5038900;28;20148;-77
2022/11/26 03:08:57;;;;;;;75.45;27.23;;;3.30;99.90;;;;;;5050965;28;20531;-77
2022/11/26 03:11:22;;;;;;;73.38;25.50;;;3.30;99.90;;;;;;5042893;28;20131;-77
2022/11/26 03:13:48;;;;;;;74.18;26.02;;;3.30;99.90;;;;;;5025870;28;20059;-79
2022/11/26 03:16:15;;;;;;;74.50;26.65;;;3.20;99.90;;;;;;5050302;28;20494;-77
2022/11/26 03:18:41;;;;;;;64.07;26.75;;;3.20;99.90;;;;;;5016953;28;20051;-77
2022/11/26 03:21:07;;;;;;;76.60;26.77;;;3.20;99.90;;;;;;5050947;28;20048;-78
2022/11/26 03:23:33;;;;;;;67.70;26.63;;;3.20;99.90;;;;;;5062079;28;20661;-77
2022/11/26 03:25:58;;;;;;;79.47;27.55;;;3.20;99.90;;;;;;5050350;28;20044;-78
2022/11/26 03:28:24;;;;;;;71.28;26.15;;;3.20;99.90;;;;;;5054326;28;20049;-78
2022/11/26 03:30:50;;;;;;;68.05;25.40;;;3.20;99.90;;;;;;5024877;28;20090;-77
2022/11/26 03:33:16;;;;;;;61.42;24.75;;;3.20;99.90;;;;;;5034707;28;20053;-79
2022/11/26 03:35:42;;;;;;;70.45;25.55;;;3.30;99.90;;;;;;5032737;28;20059;-77
2022/11/26 03:38:07;;;;;;;73.10;28.05;;;3.40;99.90;;;;;;5049878;28;20167;-79
2022/11/26 03:40:33;;;;;;;74.47;27.45;;;3.60;99.90;;;;;;5033736;28;20116;-77
2022/11/26 03:42:59;;;;;;;74.88;27.83;;;3.60;99.90;;;;;;5032557;28;20075;-78
2022/11/26 03:45:25;;;;;;;82.45;28.42;;;3.80;99.90;;;;;;5030901;28;20558;-77
2022/11/26 03:47:50;;;;;;;70.40;28.02;;;3.70;99.90;;;;;;5055601;28;20075;-81
2022/11/26 03:50:16;;;;;;;72.57;28.20;;;3.80;99.90;;;;;;5064968;28;20406;-83
2022/11/26 03:52:42;;;;;;;64.95;26.48;;;3.70;99.90;;;;;;5051120;28;20049;-78
2022/11/26 03:55:08;;;;;;;81.53;26.90;;;3.80;99.90;;;;;;5032862;28;20041;-77
2022/11/26 03:57:34;;;;;;;67.63;26.15;;;3.80;99.90;;;;;;5032409;28;20056;-77
2022/11/26 03:59:59;;;;;;;78.72;27.65;;;3.80;99.90;;;;;;5043150;28;20045;-79
2022/11/26 04:02:25;;;;;;;76.85;27.05;;;3.80;99.90;;;;;;5036372;28;20482;-78
2022/11/26 04:04:50;;;;;;;68.90;25.75;;;3.80;99.90;;;;;;5032985;28;20648;-79
2022/11/26 04:07:16;;;;;;;79.57;27.50;;;3.80;99.90;;;;;;5043537;28;20198;-80
2022/11/26 04:09:42;;;;;;;69.38;26.75;;;3.80;99.90;;;;;;5042093;28;20453;-79
2022/11/26 04:12:07;;;;;;;102.00;31.92;;;3.80;99.90;;;;;;5032746;28;20709;-79
2022/11/26 04:14:33;;;;;;;59.95;25.27;;;3.80;99.90;;;;;;5019311;28;20045;-78
2022/11/26 04:16:59;;;;;;;80.88;28.17;;;3.90;99.90;;;;;;5028258;28;20049;-78
2022/11/26 04:19:24;;;;;;;74.43;27.35;;;3.90;99.90;;;;;;5025359;28;20080;-79
2022/11/26 04:21:50;;;;;;;76.93;27.13;;;3.70;99.90;;;;;;5027003;28;20118;-79
2022/11/26 04:24:16;;;;;;;71.05;27.65;;;3.70;99.90;;;;;;5032653;28;20048;-79
2022/11/26 04:26:41;;;;;;;73.55;27.25;;;3.70;99.90;;;;;;5045467;28;20042;-79
2022/11/26 04:29:07;;;;;;;81.28;26.25;;;3.70;99.90;;;;;;5040980;28;20045;-78
2022/11/26 04:31:33;;;;;;;70.40;24.88;;;3.70;99.90;;;;;;5041479;28;20426;-78
2022/11/26 04:33:58;;;;;;;71.82;26.65;;;3.60;99.90;;;;;;5041255;28;20080;-81
2022/11/26 04:36:24;;;;;;;82.55;26.55;;;3.60;99.90;;;;;;5040451;28;20049;-79
2022/11/26 04:38:49;;;;;;;77.20;27.92;;;3.60;99.90;;;;;;5048993;28;20048;-79
2022/11/26 04:41:15;;;;;;;75.93;26.77;;;3.60;99.90;;;;;;5027013;28;20493;-81
2022/11/26 04:43:41;;;;;;;67.22;23.98;;;3.60;99.90;;;;;;5046440;28;20248;-79
2022/11/26 04:46:06;;;;;;;63.40;24.33;;;3.70;99.90;;;;;;5044184;28;20052;-79
2022/11/26 04:48:32;;;;;;;80.95;27.88;;;3.70;99.90;;;;;;5046869;28;20059;-79
2022/11/26 04:50:58;;;;;;;77.10;26.67;;;3.70;99.90;;;;;;5048305;28;20421;-78
2022/11/26 04:53:24;;;;;;;75.05;26.15;;;3.70;99.90;;;;;;5033246;28;20045;-85
2022/11/26 04:55:51;;;;;;;86.00;28.30;;;3.70;99.90;;;;;;5048069;28;20405;-79
2022/11/26 04:58:17;;;;;;;65.13;25.52;;;3.60;99.90;;;;;;5048606;28;20451;-79
2022/11/26 05:00:43;;;;;;;89.88;29.10;;;3.60;99.90;;;;;;5010174;28;20372;-78
2022/11/26 05:03:09;;;;;;;80.28;27.08;;;3.60;99.90;;;;;;5047844;28;20052;-78
2022/11/26 05:05:35;;;;;;;76.80;26.92;;;3.50;99.90;;;;;;5028491;28;20045;-79
2022/11/26 05:08:00;;;;;;;82.63;29.33;;;3.50;99.90;;;;;;4997482;28;20054;-79
2022/11/26 05:10:26;;;;;;;76.57;27.02;;;3.50;99.90;;;;;;5002362;28;20384;-82
2022/11/26 05:12:52;;;;;;;75.82;26.80;;;3.40;99.90;;;;;;5047639;28;20041;-78
2022/11/26 05:15:17;;;;;;;78.72;28.67;;;3.40;99.90;;;;;;5013663;28;20048;-79
2022/11/26 05:17:43;;;;;;;82.80;30.00;;;3.60;99.90;;;;;;5031441;28;20056;-79
2022/11/26 05:20:09;;;;;;;84.50;30.92;;;3.30;99.90;;;;;;5048346;28;20076;-79
2022/11/26 05:22:35;;;;;;;91.82;30.40;;;3.30;99.90;;;;;;5030286;28;20040;-79
2022/11/26 05:25:01;;;;;;;102.32;32.92;;;3.30;99.90;;;;;;5046681;28;20186;-79
2022/11/26 05:27:26;;;;;;;80.18;30.67;;;3.20;99.90;;;;;;5055055;28;20052;-80
2022/11/26 05:29:52;;;;;;;94.05;32.53;;;3.30;99.90;;;;;;5048699;28;20044;-80
2022/11/26 05:32:18;;;;;;;106.20;37.20;;;3.20;99.90;;;;;;5013145;28;20826;-78
2022/11/26 05:34:43;;;;;;;99.03;33.03;;;3.20;99.90;;;;;;5038966;28;20049;-78
2022/11/26 05:37:09;;;;;;;84.40;33.58;;;3.20;99.90;;;;;;5019850;28;20509;-79
2022/11/26 05:39:35;;;;;;;101.90;35.72;;;3.20;99.90;;;;;;5022312;28;20045;-78
2022/11/26 05:42:00;;;;;;;89.65;33.15;;;3.20;99.90;;;;;;5057944;28;20124;-78
2022/11/26 05:44:26;;;;;;;91.22;35.53;;;3.20;99.90;;;;;;5037820;28;20114;-78
2022/11/26 05:46:52;;;;;;;98.43;34.08;;;3.20;99.90;;;;;;5016646;28;20037;-78
2022/11/26 05:49:17;;;;;;;93.53;35.83;;;3.20;99.90;;;;;;5029917;28;20402;-78
2022/11/26 05:51:43;;;;;;;93.72;34.38;;;3.20;99.90;;;;;;5048579;28;20442;-78
2022/11/26 05:54:12;;;;;;;102.93;36.95;;;3.20;99.90;;;;;;5048799;28;20478;-79
2022/11/26 05:56:38;;;;;;;104.38;36.08;;;3.30;99.90;;;;;;5049668;28;20106;-80
2022/11/26 05:59:04;;;;;;;107.63;36.50;;;3.20;99.90;;;;;;5032968;28;20061;-79
2022/11/26 06:01:30;;;;;;;100.25;35.33;;;3.30;99.90;;;;;;5051134;28;20059;-79
2022/11/26 06:03:55;;;;;;;112.15;39.95;;;3.40;99.90;;;;;;5032948;28;20170;-80
2022/11/26 06:06:21;;;;;;;108.10;38.33;;;3.40;99.90;;;;;;5041497;28;20542;-79
2022/11/26 06:08:47;;;;;;;130.55;40.85;;;3.30;99.90;;;;;;5035200;28;20041;-79
2022/11/26 06:11:13;;;;;;;128.80;40.20;;;3.30;99.90;;;;;;5033770;28;20120;-79
2022/11/26 06:13:39;;;;;;;117.78;39.05;;;3.30;99.90;;;;;;5050554;28;20052;-80
2022/11/26 06:16:05;;;;;;;126.20;41.97;;;3.30;99.90;;;;;;5035602;28;20080;-80
2022/11/26 06:18:30;;;;;;;127.38;41.70;;;3.40;99.90;;;;;;5019544;28;20060;-78
2022/11/26 06:21:00;;;;;;;137.98;43.67;;;3.40;99.90;;;;;;5034032;28;20379;-79
2022/11/26 06:23:26;;;;;;;119.82;41.55;;;3.40;99.90;;;;;;5028085;28;20057;-79
2022/11/26 06:25:51;;;;;;;130.13;40.97;;;3.40;99.90;;;;;;5023073;28;20056;-79
2022/11/26 06:28:17;;;;;;;143.35;43.55;;;3.60;99.90;;;;;;5040447;28;20050;-79
2022/11/26 06:30:44;;;;;;;182.55;48.85;;;3.50;99.90;;;;;;5040599;28;20045;-79
2022/11/26 06:33:09;;;;;;;167.90;46.72;;;3.50;99.90;;;;;;5043975;28;20514;-79
2022/11/26 06:35:35;;;;;;;158.40;48.08;;;3.50;99.90;;;;;;5039784;28;20054;-78
2022/11/26 06:38:01;;;;;;;205.40;50.65;;;3.60;99.90;;;;;;5050221;28;20092;-79
2022/11/26 06:40:26;;;;;;;216.27;51.83;;;3.60;99.90;;;;;;5016706;28;20053;-80
2022/11/26 06:42:53;;;;;;;154.13;48.28;;;3.60;99.90;;;;;;5025888;28;20037;-79
2022/11/26 06:45:20;;;;;;;201.48;51.55;;;3.70;99.90;;;;;;5041248;28;20040;-80
2022/11/26 06:47:47;;;;;;;216.95;53.60;;;3.70;99.90;;;;;;5051158;28;20078;-79
2022/11/26 06:50:17;;;;;;;233.48;51.05;;;3.70;99.90;;;;;;5031382;28;20067;-79
2022/11/26 06:52:43;;;;;;;218.80;51.33;;;3.80;99.90;;;;;;5043144;28;20040;-79
2022/11/26 06:55:09;;;;;;;198.05;48.22;;;3.80;99.90;;;;;;5040577;28;20526;-79
2022/11/26 06:57:35;;;;;;;243.18;52.70;;;3.80;99.90;;;;;;5049723;28;20512;-78
2022/11/26 07:00:00;;;;;;;226.50;52.75;;;3.80;99.90;;;;;;5038011;28;20037;-78
2022/11/26 07:02:26;;;;;;;207.30;50.13;;;3.80;99.90;;;;;;5034880;28;20125;-81
2022/11/26 07:04:52;;;;;;;233.85;53.55;;;3.80;99.90;;;;;;5049646;28;20180;-78
2022/11/26 07:07:17;;;;;;;213.48;49.80;;;3.90;99.90;;;;;;5035884;28;20482;-78
2022/11/26 07:09:43;;;;;;;194.55;50.92;;;3.90;99.90;;;;;;5030720;28;20138;-85
2022/11/26 07:12:09;;;;;;;217.18;51.97;;;3.90;99.90;;;;;;5033536;28;20055;-79
2022/11/26 07:14:34;;;;;;;226.68;53.47;;;3.90;99.90;;;;;;5047056;28;20045;-79
2022/11/26 07:17:00;;;;;;;173.80;46.13;;;3.80;99.90;;;;;;5047188;28;20126;-78
2022/11/26 07:19:26;;;;;;;180.95;47.83;;;3.80;99.90;;;;;;5028972;28;20059;-78
2022/11/26 07:21:52;;;;;;;153.15;44.20;;;3.80;99.90;;;;;;5046085;28;20174;-78
2022/11/26 07:24:17;;;;;;;161.80;46.05;;;3.80;99.90;;;;;;5043385;28;20077;-78
2022/11/26 07:26:43;;;;;;;176.38;47.55;;;3.80;99.90;;;;;;5016649;28;20052;-86
2022/11/26 07:29:09;;;;;;;165.25;46.80;;;3.80;99.90;;;;;;5049625;28;20060;-79
2022/11/26 07:31:35;;;;;;;185.13;48.58;;;3.80;99.90;;;;;;5062276;28;20470;-79
2022/11/26 07:34:01;;;;;;;171.07;48.42;;;3.90;99.90;;;;;;5068570;28;20137;-81
2022/11/26 07:36:28;;;;;;;166.23;47.00;;;3.80;99.90;;;;;;5062904;28;20076;-78
2022/11/26 07:38:58;;;;;;;189.52;47.60;;;3.90;99.90;;;;;;5049320;28;20534;-78
2022/11/26 07:41:25;;;;;;;190.48;49.70;;;3.90;99.90;;;;;;5049061;28;20051;-78
2022/11/26 07:43:51;;;;;;;169.60;45.72;;;3.90;99.90;;;;;;5059777;28;20402;-79
2022/11/26 07:46:20;;;;;;;166.82;47.58;;;4.00;99.90;;;;;;5053572;28;20037;-78
2022/11/26 07:48:46;;;;;;;146.88;43.78;;;4.00;99.90;;;;;;5032965;28;20843;-85
2022/11/26 07:51:22;;;;;;;117.90;41.17;;;4.10;99.90;;;;;;5047419;28;20120;-79
2022/11/26 07:53:48;;;;;;;115.07;40.30;;;4.00;99.90;;;;;;5043233;28;20394;-84
2022/11/26 07:56:15;;;;;;;141.40;43.78;;;3.90;99.90;;;;;;5050446;28;20055;-79
2022/11/26 07:58:41;;;;;;;106.97;38.22;;;3.90;99.90;;;;;;5045806;28;20565;-77
2022/11/26 08:01:12;;;;;;;105.25;39.17;;;4.00;99.90;;;;;;5049420;28;20481;-78
2022/11/26 08:03:40;;;;;;;112.75;40.00;;;4.10;99.90;;;;;;5067178;28;20088;-77
2022/11/26 08:06:08;;;;;;;128.27;40.45;;;4.00;99.90;;;;;;5047891;28;20119;-77
2022/11/26 08:08:34;;;;;;;154.75;45.00;;;4.10;99.90;;;;;;5036429;28;20049;-79
2022/11/26 08:11:01;;;;;;;115.18;41.55;;;4.10;99.90;;;;;;5021356;28;20068;-79
2022/11/26 08:13:27;;;;;;;128.65;41.92;;;4.10;99.90;;;;;;5067488;28;20048;-79
2022/11/26 08:15:53;;;;;;;125.18;41.50;;;4.10;99.90;;;;;;5064788;28;20393;-79
2022/11/26 08:18:19;;;;;;;120.60;40.30;;;4.20;99.90;;;;;;5042001;28;20103;-79
2022/11/26 08:20:44;;;;;;;116.90;41.03;;;4.20;99.90;;;;;;5033968;28;20102;-80
2022/11/26 08:23:10;;;;;;;120.35;40.17;;;4.30;99.90;;;;;;5044327;28;20048;-79
2022/11/26 08:25:36;;;;;;;100.25;36.58;;;4.20;99.90;;;;;;5045486;28;20641;-78
2022/11/26 08:28:01;;;;;;;120.00;39.72;;;4.20;99.90;;;;;;5031311;28;20469;-80
2022/11/26 08:30:29;;;;;;;119.72;38.75;;;4.30;99.90;;;;;;5054873;28;20044;-79
2022/11/26 08:32:55;;;;;;;125.20;39.88;;;4.30;99.90;;;;;;5050619;28;20056;-79
2022/11/26 08:35:21;;;;;;;89.07;34.90;;;4.40;99.90;;;;;;5034646;28;20041;-78
2022/11/26 08:37:46;;;;;;;92.35;34.83;;;4.40;99.90;;;;;;5049464;28;20402;-78
2022/11/26 08:40:13;;;;;;;100.57;36.08;;;4.40;99.90;;;;;;5057267;28;20269;-78
2022/11/26 08:42:41;;;;;;;87.70;33.95;;;4.50;99.90;;;;;;5000172;28;20444;-79
2022/11/26 08:45:07;;;;;;;82.20;34.13;;;4.50;99.90;;;;;;5048436;28;20398;-77
2022/11/26 08:47:33;;;;;;;95.97;34.15;;;4.60;99.90;;;;;;5037274;28;20041;-77
2022/11/26 08:49:58;;;;;;;77.60;32.28;;;4.70;99.90;;;;;;5022281;28;20090;-79
2022/11/26 08:52:24;;;;;;;79.97;32.83;;;4.80;99.90;;;;;;5031687;28;20048;-80
2022/11/26 08:54:50;;;;;;;101.30;37.15;;;4.90;99.90;;;;;;5000212;28;20049;-79
2022/11/26 08:57:15;;;;;;;82.28;33.53;;;4.90;99.90;;;;;;5033066;28;20044;-81
2022/11/26 08:59:41;;;;;;;67.55;28.85;;;4.90;99.90;;;;;;5034510;28;20460;-78
2022/11/26 09:02:09;;;;;;;66.38;30.30;;;5.10;99.90;;;;;;5031904;28;20040;-79
2022/11/26 09:04:37;;;;;;;76.47;33.47;;;5.10;99.90;;;;;;5037872;28;20470;-83
2022/11/26 09:07:03;;;;;;;91.35;35.78;;;5.10;99.90;;;;;;5035153;28;20033;-79
2022/11/26 09:09:29;;;;;;;75.43;30.83;;;5.20;99.90;;;;;;5009352;28;20091;-79
2022/11/26 09:11:59;;;;;;;74.10;31.20;;;5.10;99.90;;;;;;5042266;28;20494;-80
2022/11/26 09:14:37;;;;;;;114.10;38.72;;;5.20;99.90;;;;;;5042864;28;20048;-81
2022/11/26 09:17:03;;;;;;;92.65;35.10;;;5.20;99.90;;;;;;5048762;28;20572;-83
2022/11/26 09:19:29;;;;;;;77.25;33.92;;;5.20;99.90;;;;;;5037053;28;20099;-80
2022/11/26 09:21:54;;;;;;;80.03;32.45;;;5.20;99.90;;;;;;5023403;28;20045;-81
2022/11/26 09:24:21;;;;;;;86.10;34.10;;;5.30;99.90;;;;;;5039809;28;20477;-81
2022/11/26 09:26:47;;;;;;;75.43;33.75;;;5.40;99.90;;;;;;5037870;28;20167;-83
2022/11/26 09:29:16;;;;;;;78.28;31.98;;;5.40;99.90;;;;;;5022390;28;20491;-79
2022/11/26 09:31:43;;;;;;;81.45;34.50;;;5.50;99.90;;;;;;5032652;28;20128;-79
2022/11/26 09:34:10;;;;;;;79.72;34.00;;;5.50;99.90;;;;;;5019555;28;20605;-80
2022/11/26 09:36:36;;;;;;;86.25;34.15;;;5.50;99.90;;;;;;5016221;28;20495;-82
2022/11/26 09:39:02;;;;;;;79.55;33.20;;;5.60;99.90;;;;;;5040240;28;20094;-81
2022/11/26 09:41:39;;;;;;;86.35;33.78;;;5.60;99.90;;;;;;5047194;28;20057;-81
2022/11/26 09:44:29;;;;;;;76.20;33.47;;;5.70;99.90;;;;;;5051476;28;20084;-79
2022/11/26 09:47:13;;;;;;;71.60;31.35;;;5.80;99.90;;;;;;5047550;28;20371;-80
2022/11/26 09:50:06;;;;;;;76.93;33.60;;;5.80;99.90;;;;;;5053874;28;20049;-79
2022/11/26 09:52:38;;;;;;;75.25;32.50;;;5.90;99.90;;;;;;5045827;28;20045;-82
2022/11/26 09:55:13;;;;;;;85.28;33.90;;;6.00;99.90;;;;;;5037832;28;20041;-80
2022/11/26 09:57:45;;;;;;;78.28;35.33;;;6.00;99.90;;;;;;5052850;28;20055;-80
2022/11/26 10:00:39;;;;;;;83.25;33.28;;;6.10;99.90;;;;;;5060657;28;20674;-81
2022/11/26 10:03:13;;;;;;;69.60;31.58;;;6.20;99.90;;;;;;5069667;28;20059;-80
2022/11/26 10:05:54;;;;;;;74.45;32.90;;;6.30;99.90;;;;;;5067335;28;20048;-79
2022/11/26 10:08:31;;;;;;;84.60;35.35;;;6.30;99.90;;;;;;5045075;28;20139;-80
2022/11/26 10:11:21;;;;;;;77.03;31.50;;;6.40;99.90;;;;;;5051648;28;20049;-79
2022/11/26 10:14:06;;;;;;;72.95;32.97;;;6.50;99.90;;;;;;5050774;28;20517;-79
2022/11/26 10:16:47;;;;;;;65.55;31.77;;;6.50;99.90;;;;;;5056397;28;20049;-82
2022/11/26 10:19:33;;;;;;;90.18;40.47;;;6.60;99.90;;;;;;5031478;28;20128;-79
2022/11/26 10:22:04;;;;;;;91.80;42.23;;;6.70;99.90;;;;;;5053253;28;20075;-81
2022/11/26 10:24:40;;;;;;;90.60;38.92;;;6.80;99.90;;;;;;5034397;28;20053;-80
2022/11/26 10:27:15;;;;;;;81.82;35.40;;;6.90;99.90;;;;;;5032077;28;20045;-85
2022/11/26 10:29:43;;;;;;;80.33;35.97;;;7.00;99.90;;;;;;5050541;28;20045;-81
2022/11/26 10:32:24;;;;;;;86.45;37.58;;;7.20;99.90;;;;;;5031390;28;20430;-79
2022/11/26 10:34:56;;;;;;;82.57;38.00;;;7.20;99.90;;;;;;5073025;28;20060;-81
2022/11/26 10:37:26;;;;;;;77.20;35.60;;;7.30;99.90;;;;;;5049850;28;20095;-80
2022/11/26 10:40:05;;;;;;;82.43;35.85;;;7.40;99.90;;;;;;5035803;28;20052;-77
2022/11/26 10:42:43;;;;;;;83.22;38.65;;;7.60;99.90;;;;;;5042304;28;20056;-82
2022/11/26 10:45:19;;;;;;;67.80;35.13;;;7.60;99.90;;;;;;5057685;28;20047;-83
2022/11/26 10:47:45;;;;;;;82.50;38.47;;;7.60;99.90;;;;;;5027914;28;20044;-79
2022/11/26 10:50:13;;;;;;;84.28;39.00;;;7.60;99.90;;;;;;5015126;28;20049;-79
2022/11/26 10:52:39;;;;;;;84.32;40.47;;;7.60;99.90;;;;;;5043643;28;20049;-79
2022/11/26 10:55:17;;;;;;;67.25;35.58;;;7.60;99.90;;;;;;5037880;28;20052;-79
2022/11/26 10:57:50;;;;;;;77.78;36.85;;;7.60;99.90;;;;;;5035810;28;20128;-79
2022/11/26 11:00:32;;;;;;;79.80;38.80;;;7.60;99.90;;;;;;5043367;28;20128;-78
2022/11/26 11:02:59;;;;;;;80.88;38.40;;;7.70;99.90;;;;;;5033310;28;20554;-79
2022/11/26 11:05:25;;;;;;;77.63;36.58;;;7.70;99.90;;;;;;5033908;28;20453;-80
2022/11/26 11:07:53;;;;;;;77.95;36.85;;;7.70;99.90;;;;;;5033821;28;20087;-78
2022/11/26 11:10:23;;;;;;;88.20;40.85;;;7.70;99.90;;;;;;5036425;28;20648;-78
2022/11/26 11:12:52;;;;;;;96.18;38.97;;;7.70;99.90;;;;;;5050504;28;20045;-78
2022/11/26 11:15:25;;;;;;;79.07;38.70;;;7.80;99.90;;;;;;5047991;28;20133;-78
2022/11/26 11:18:05;;;;;;;104.05;43.83;;;7.80;99.90;;;;;;5050524;28;20441;-79
2022/11/26 11:20:36;;;;;;;96.22;39.90;;;7.90;99.90;;;;;;5045292;28;20818;-80
2022/11/26 11:23:08;;;;;;;96.07;39.75;;;7.90;99.90;;;;;;5048919;28;20478;-79
2022/11/26 11:25:38;;;;;;;97.20;42.58;;;7.90;99.90;;;;;;5033609;28;20475;-79
2022/11/26 11:28:11;;;;;;;99.93;39.95;;;7.90;99.90;;;;;;5050039;28;20049;-78
2022/11/26 11:30:39;;;;;;;97.47;37.78;;;7.90;99.90;;;;;;5013508;28;20048;-78
2022/11/26 11:33:24;;;;;;;110.63;41.20;;;7.90;99.90;;;;;;5014427;28;20079;-79
2022/11/26 11:36:15;;;;;;;86.35;38.10;;;8.00;99.90;;;;;;5051259;28;20064;-79
2022/11/26 11:39:01;;;;;;;93.75;38.53;;;8.00;99.90;;;;;;5049326;28;20064;-80
2022/11/26 11:41:35;;;;;;;96.90;40.33;;;8.00;99.90;;;;;;5062829;28;20064;-79
2022/11/26 11:44:22;;;;;;;98.45;39.28;;;8.00;99.90;;;;;;5032926;28;20056;-80
2022/11/26 11:47:09;;;;;;;94.53;38.92;;;8.00;99.90;;;;;;5029987;28;20049;-78
2022/11/26 11:49:53;;;;;;;92.90;39.55;;;8.00;99.90;;;;;;5026227;28;20091;-80
2022/11/26 11:52:28;;;;;;;92.65;35.38;;;8.00;99.90;;;;;;5041477;28;20048;-80
2022/11/26 11:55:11;;;;;;;94.85;38.58;;;8.00;99.90;;;;;;5045041;28;20394;-80
2022/11/26 11:57:58;;;;;;;85.45;36.60;;;8.00;99.90;;;;;;5028636;28;20056;-79
2022/11/26 12:00:45;;;;;;;91.00;38.30;;;8.00;99.90;;;;;;5029293;28;20841;-78
2022/11/26 12:03:29;;;;;;;104.38;40.17;;;8.10;99.90;;;;;;5034134;28;20123;-79
2022/11/26 12:06:13;;;;;;;107.28;38.42;;;8.20;99.90;;;;;;5050502;28;20068;-81
2022/11/26 12:09:17;;;;;;;88.88;35.95;;;8.20;99.90;;;;;;5049072;28;20470;-79
2022/11/26 12:11:48;;;;;;;94.03;37.55;;;8.20;99.90;;;;;;5009616;28;20146;-79
2022/11/26 12:14:41;;;;;;;78.85;34.35;;;8.20;99.90;;;;;;5038875;28;20037;-77
2022/11/26 12:17:34;;;;;;;91.68;35.95;;;8.30;99.90;;;;;;5036802;28;20049;-79
2022/11/26 12:20:22;;;;;;;82.57;34.63;;;8.30;99.90;;;;;;5048365;28;20052;-79
2022/11/26 12:22:57;;;;;;;89.32;35.40;;;8.30;99.90;;;;;;5020882;28;20049;-79
2022/11/26 12:25:35;;;;;;;92.43;37.03;;;8.30;99.90;;;;;;5044121;28;20135;-79
2022/11/26 12:28:24;;;;;;;83.95;33.90;;;8.40;99.90;;;;;;5060336;28;20056;-80
2022/11/26 12:31:00;;;;;;;88.18;35.15;;;8.40;99.90;;;;;;5044291;28;20053;-79
2022/11/26 12:33:25;;;;;;;85.50;35.38;;;8.40;99.90;;;;;;5048079;28;20057;-80
2022/11/26 12:35:59;;;;;;;81.00;34.85;;;8.50;99.90;;;;;;5048304;28;20556;-79
2022/11/26 12:38:33;;;;;;;87.53;35.13;;;8.50;99.90;;;;;;5045537;28;20049;-79
2022/11/26 12:41:11;;;;;;;90.60;34.90;;;8.50;99.90;;;;;;5042039;28;20052;-79
2022/11/26 12:43:55;;;;;;;74.90;32.83;;;8.50;99.90;;;;;;5049527;28;20081;-79
2022/11/26 12:46:35;;;;;;;91.68;37.65;;;8.50;99.90;;;;;;5049881;28;20086;-80
2022/11/26 12:49:29;;;;;;;84.80;34.88;;;8.50;99.90;;;;;;5033216;28;20057;-80
2022/11/26 12:52:23;;;;;;;85.35;33.88;;;8.40;99.90;;;;;;5042572;28;20080;-80